Flight Track Log - Related Links

Times and Time Zones

All times are in EDT time to prevent confusion due to time zone crossing. See the UAL252 flight status page for this flight to view local times or setup timezone preferences in your user account.

Time Position Orientation Groundspeed Altitude Reporting Facility
EDT Latitude Longitude Course Direction KTS MPH feet Rate Location/Type
Sun 09:25:22 AM 33.4333 -111.9833 20° North 179 206 2,000  Level Phoenix TRACON
Sun 09:26:34 AM 33.4333 -111.9167 90° East 203 234 4,100 1,737 Climbing Phoenix TRACON
Sun 09:27:00 AM 33.7537 -111.8599 15° North  Level FlightAware Approximate
Sun 09:27:16 AM 33.4425 -111.8675 77° East 240 276 5,300  Level Albuquerque Center
Sun 09:28:00 AM 33.8617 -111.8158 20° North  Level FlightAware Approximate
Sun 09:28:17 AM 33.4831 -111.7950 56° Northeast 262 302 8,700  Level Albuquerque Center
Sun 09:29:00 AM 33.9690 -111.7689 20° North  Level FlightAware Approximate
Sun 09:29:18 AM 33.5514 -111.7683 18° North 283 326 11,700  Level Albuquerque Center
Sun 09:30:00 AM 34.0763 -111.7220 20° North  Level FlightAware Approximate
Sun 09:30:19 AM 33.6392 -111.7667 North 323 372 14,000  Level Albuquerque Center
Sun 09:31:20 AM 33.7472 -111.7567 North 387 445 15,200 1,672 Climbing Albuquerque Center
Sun 09:32:21 AM 33.8900 -111.7428 North 433 498 17,400 2,083 Climbing Albuquerque Center
Sun 09:33:21 AM 34.0156 -111.7322 North 443 510 19,400 1,835 Climbing Albuquerque Center
Sun 09:34:22 AM 34.1400 -111.6933 15° North 465 535 21,100 1,525 Climbing Albuquerque Center
Sun 09:35:23 AM 34.2572 -111.6481 18° North 481 554 22,500 1,426 Climbing Albuquerque Center
Sun 09:36:24 AM 34.3872 -111.5969 18° North 488 562 24,000 1,721 Climbing Albuquerque Center
Sun 09:37:25 AM 34.5164 -111.5447 18° North 490 564 26,000 1,475 Climbing Albuquerque Center
Sun 09:38:26 AM 34.6181 -111.4283 43° Northeast 509 586 27,000 1,328 Climbing Albuquerque Center
Sun 09:39:27 AM 34.7111 -111.2975 49° Northeast 511 588 28,700 1,537 Climbing Albuquerque Center
Sun 09:40:27 AM 34.8039 -111.1650 50° Northeast 513 590 30,100 1,587 Climbing Albuquerque Center
Sun 09:41:28 AM 34.9142 -111.0053 50° Northeast 514 592 31,900 1,820 Climbing Albuquerque Center
Sun 09:42:29 AM 35.0058 -110.8753 49° Northeast 508 585 33,800 1,574 Climbing Albuquerque Center
Sun 09:43:30 AM 35.0900 -110.7525 50° Northeast 500 575 35,100 1,230 Climbing Albuquerque Center
Sun 09:44:31 AM 35.1842 -110.6047 52° Northeast 495 570 36,300 934 Climbing Albuquerque Center
Sun 09:45:32 AM 35.2658 -110.4761 52° Northeast 498 573 37,000 344 Climbing Albuquerque Center
Sun 09:46:33 AM 35.3475 -110.3492 52° Northeast 496 571 37,000  Level Albuquerque Center
Sun 09:47:34 AM 35.4428 -110.2008 52° Northeast 496 571 37,000  Level Albuquerque Center
Sun 09:48:35 AM 35.5239 -110.0747 52° Northeast 493 567 37,000  Level Albuquerque Center
Sun 09:49:36 AM 35.6050 -109.9472 52° Northeast 493 567 37,000  Level Albuquerque Center
Sun 09:50:37 AM 35.6989 -109.7992 52° Northeast 491 565 37,000  Level Albuquerque Center
Sun 09:51:38 AM 35.7792 -109.6714 52° Northeast 492 566 37,000  Level Albuquerque Center
Sun 09:52:39 AM 35.8611 -109.5428 52° Northeast 495 570 37,000  Level Albuquerque Center
Sun 09:53:40 AM 35.9542 -109.3936 52° Northeast 492 566 37,000  Level Albuquerque Center
Sun 09:54:40 AM 36.0336 -109.2656 52° Northeast 492 566 37,000  Level Denver Center
Sun 09:55:41 AM 36.1142 -109.1394 52° Northeast 487 560 37,000  Level Denver Center
Sun 09:56:42 AM 36.2081 -108.9869 53° Northeast 489 563 37,000  Level Denver Center
Sun 09:57:43 AM 36.2897 -108.8567 52° Northeast 491 565 37,000  Level Denver Center
Sun 09:58:44 AM 36.3692 -108.7261 53° Northeast 491 565 37,000  Level Denver Center
Sun 09:59:46 AM 36.4472 -108.5972 53° Northeast 489 563 37,000  Level Denver Center
Sun 10:00:47 AM 36.5375 -108.4475 53° Northeast 484 557 37,000  Level Denver Center
Sun 10:01:48 AM 36.6289 -108.3347 45° Northeast 482 555 37,000  Level Denver Center
Sun 10:02:49 AM 36.7417 -108.2117 41° Northeast 483 556 37,000  Level Denver Center
Sun 10:03:51 AM 36.8383 -108.1056 41° Northeast 482 555 37,000  Level Denver Center
Sun 10:04:52 AM 36.9339 -107.9986 42° Northeast 483 556 37,000  Level Denver Center
Sun 10:05:53 AM 37.0461 -107.8733 42° Northeast 485 558 37,000  Level Denver Center
Sun 10:06:55 AM 37.1417 -107.7678 41° Northeast 480 552 37,000  Level Denver Center
Sun 10:07:56 AM 37.2539 -107.6431 41° Northeast 482 555 37,000  Level Denver Center
Sun 10:08:58 AM 37.3494 -107.5342 42° Northeast 482 555 37,000  Level Denver Center
Sun 10:09:59 AM 37.4436 -107.4269 42° Northeast 479 551 37,000  Level Denver Center
Sun 10:11:00 AM 37.5542 -107.3025 42° Northeast 478 550 37,000  Level Denver Center
Sun 10:12:02 AM 37.6492 -107.1942 42° Northeast 479 551 37,000  Level Denver Center
Sun 10:13:03 AM 37.7603 -107.0692 42° Northeast 480 552 37,000  Level Denver Center
Sun 10:14:05 AM 37.8633 -106.9494 43° Northeast 482 555 37,000  Level Denver Center
Sun 10:15:07 AM 37.9583 -106.8411 42° Northeast 480 552 37,000 -267 Level Denver Center
Sun 10:16:20 AM 38.0531 -106.7308 42° Northeast 484 557 36,400 -1,867 Descending Denver Center
Sun 10:17:22 AM 38.1800 -106.5853 42° Northeast 485 558 32,800 -3,339 Descending Denver Center
Sun 10:18:24 AM 38.2878 -106.4583 43° Northeast 484 557 29,500 -2,829 Descending Denver Center
Sun 10:19:25 AM 38.3881 -106.3417 42° Northeast 488 562 27,000 -1,220 Descending Denver Center
Sun 10:20:27 AM 38.4681 -106.2478 43° Northeast 489 563 27,000  Level Denver Center
Sun 10:21:29 AM 38.5881 -106.1067 43° Northeast 482 555 27,000 -49 Level Denver Center
Sun 10:22:30 AM 38.6808 -105.9972 43° Northeast 488 562 26,900 -634 Descending Denver Center
Sun 10:23:32 AM 38.7956 -105.8600 43° Northeast 489 563 25,700 -976 Descending Denver Center
Sun 10:24:33 AM 38.8725 -105.7672 43° Northeast 482 555 24,900 -1,415 Descending Denver Center
Sun 10:25:35 AM 38.9947 -105.6208 43° Northeast 473 544 22,800 -1,935 Descending Denver Center
Sun 10:26:37 AM 39.0853 -105.5128 43° Northeast 464 534 20,900 -1,790 Descending Denver Center
Sun 10:27:39 AM 39.1753 -105.4028 43° Northeast 420 483 19,100 -1,694 Descending Denver Center
Sun 10:28:41 AM 39.2531 -105.3106 43° Northeast 386 444 17,400 -1,366 Descending Denver Center
Sun 10:29:42 AM 39.2808 -105.1797 75° East 359 413 16,300 -1,067 Descending Denver Center
Sun 10:30:56 AM 39.3036 -105.0644 76° East 338 389 15,000 -882 Descending Denver Center
Sun 10:31:58 AM 39.3278 -104.9308 77° East 313 360 14,300 -774 Descending Denver Center
Sun 10:33:00 AM 39.3500 -104.8303 74° East 278 320 13,400 -1,016 Descending Denver Center
Sun 10:34:02 AM 39.4169 -104.7906 25° Northeast 265 305 12,200 -1,065 Descending Denver Center
Sun 10:35:04 AM 39.4875 -104.7589 19° North 268 308 11,200 -1,161 Descending Denver Center
Sun 10:36:06 AM 39.5606 -104.7269 19° North 260 299 9,800 -1,065 Descending Denver Center
Sun 10:37:08 AM 39.6247 -104.6975 19° North 248 285 9,000 -774 Descending Denver Center

Login

Don't have an account? Register now (free) for customized features, flight alerts, and more!